Time;durP1;ratioP1;P1;durP2;ratioP2;P2;SDS_P1;SDS_P2;PMS_P1;PMS_P2;Temp;Humidity;BMP_temperature;BMP_pressure;BME280_temperature;BME280_humidity;BME280_pressure;Samples;Min_cycle;Max_cycle;Signal;HPM_P1;HPM_P2
2023/07/06 06:33:34;;;;;;;;;5.50;4.50;;;;;24.56;80.73;101712.81;5000291;28;49793;-77
2023/07/06 06:36:00;;;;;;;;;7.00;5.00;;;;;24.72;81.66;101714.25;5007245;28;50052;-74
2023/07/06 06:38:26;;;;;;;;;5.00;5.00;;;;;24.84;80.73;101716.66;5007357;28;50241;-74
2023/07/06 06:40:51;;;;;;;;;4.75;4.25;;;;;24.79;80.73;101715.84;5006493;28;61953;-73
2023/07/06 06:43:16;;;;;;;;;10.25;10.25;;;;;24.89;78.60;101703.09;5000672;28;49764;-70
2023/07/06 06:45:42;;;;;;;;;10.50;4.00;;;;;24.81;77.21;101705.09;5022879;28;64566;-75
2023/07/06 06:48:08;;;;;;;;;2.50;1.50;;;;;25.01;77.24;101710.00;5017101;28;68734;-71
2023/07/06 06:50:33;;;;;;;;;4.50;4.50;;;;;24.97;77.12;101714.53;5011662;28;50226;-72
2023/07/06 06:52:59;;;;;;;;;7.75;4.75;;;;;25.02;76.69;101714.50;5014702;28;49800;-72
2023/07/06 06:55:24;;;;;;;;;4.50;1.50;;;;;25.11;76.02;101714.28;5015332;28;50003;-74
2023/07/06 06:57:49;;;;;;;;;4.75;4.75;;;;;25.21;75.12;101718.50;5015848;28;50590;-73
2023/07/06 07:00:16;;;;;;;;;15.50;5.50;;;;;25.23;74.11;101716.66;5016550;28;51727;-73
2023/07/06 07:02:43;;;;;;;;;5.00;5.00;;;;;25.37;74.38;101727.03;5015299;28;50425;-74
2023/07/06 07:05:09;;;;;;;;;5.50;5.50;;;;;25.51;74.92;101724.88;5019310;28;49936;-76
2023/07/06 07:07:37;;;;;;;;;5.00;4.00;;;;;25.28;73.71;101686.94;5019226;28;49783;-74
2023/07/06 07:10:09;;;;;;;;;7.00;5.00;;;;;25.47;72.42;101727.69;5018145;28;49728;-74
2023/07/06 07:12:38;;;;;;;;;11.00;6.50;;;;;25.38;72.07;101721.66;5018006;28;49778;-74
2023/07/06 07:15:04;;;;;;;;;6.50;3.25;;;;;25.52;72.03;101733.84;5020393;28;50196;-72
2023/07/06 07:17:30;;;;;;;;;0.00;0.00;;;;;25.53;70.96;101720.34;5026068;28;50688;-75
2023/07/06 07:19:55;;;;;;;;;1.00;1.00;;;;;25.76;69.75;101722.44;5026803;28;49888;-73
2023/07/06 07:22:21;;;;;;;;;0.50;0.50;;;;;25.81;69.21;101727.72;5022829;28;55248;-74
2023/07/06 07:24:47;;;;;;;;;5.00;1.25;;;;;25.73;68.19;101727.91;5029748;28;50146;-76
2023/07/06 07:27:12;;;;;;;;;2.00;1.00;;;;;25.67;67.22;101717.28;5029058;28;50759;-76
2023/07/06 07:29:37;;;;;;;;;4.00;2.00;;;;;25.78;67.57;101725.13;5028181;28;50138;-76
2023/07/06 07:32:03;;;;;;;;;1.50;1.50;;;;;25.82;67.17;101724.09;5029733;28;49905;-75
2023/07/06 07:34:28;;;;;;;;;1.00;1.00;;;;;25.76;66.87;101716.19;5029988;28;49799;-75
2023/07/06 07:36:53;;;;;;;;;0.00;0.00;;;;;25.77;66.24;101715.25;5029019;28;52475;-75
2023/07/06 07:39:19;;;;;;;;;2.00;0.50;;;;;25.85;67.49;101710.56;5027967;28;49794;-76
2023/07/06 07:41:45;;;;;;;;;0.00;0.00;;;;;25.83;67.91;101704.34;5028683;28;50012;-75
2023/07/06 07:44:11;;;;;;;;;6.25;5.00;;;;;25.89;67.25;101712.25;5029488;28;49963;-75
2023/07/06 07:46:36;;;;;;;;;0.00;0.00;;;;;26.01;66.94;101711.03;5026239;28;49711;-74
2023/07/06 07:49:01;;;;;;;;;2.00;2.00;;;;;26.08;65.59;101712.63;5027108;28;50063;-75
2023/07/06 07:51:28;;;;;;;;;1.00;1.00;;;;;26.12;64.77;101711.59;5027395;28;49970;-75
2023/07/06 07:53:55;;;;;;;;;2.00;0.00;;;;;26.24;64.80;101713.94;5027855;28;50026;-76
2023/07/06 07:56:22;;;;;;;;;0.00;0.00;;;;;26.08;64.43;101651.63;5028481;28;50992;-76
2023/07/06 07:58:48;;;;;;;;;0.75;0.75;;;;;26.22;63.49;101699.63;5026756;28;50148;-75
2023/07/06 08:01:16;;;;;;;;;2.00;2.00;;;;;26.45;63.91;101707.97;5022736;28;50231;-74
2023/07/06 08:03:42;;;;;;;;;1.00;1.00;;;;;26.26;62.98;101704.03;5029663;28;49623;-74
2023/07/06 08:06:09;;;;;;;;;3.00;1.25;;;;;26.48;64.20;101702.47;5027982;28;49838;-75
2023/07/06 08:08:36;;;;;;;;;5.00;4.00;;;;;26.53;62.72;101694.25;5028949;28;49921;-75
2023/07/06 08:11:24;;;;;;;;;1.75;1.25;;;;;27.04;61.70;101694.44;5023984;28;49877;-75
2023/07/06 08:13:53;;;;;;;;;2.00;0.50;;;;;26.71;62.21;101682.03;5020907;28;50132;-75
2023/07/06 08:16:20;;;;;;;;;2.00;2.00;;;;;26.74;62.00;101696.28;5025029;28;50590;-73
2023/07/06 08:18:46;;;;;;;;;3.00;2.00;;;;;26.59;61.56;101691.38;5022577;28;50005;-75
2023/07/06 08:21:11;;;;;;;;;2.75;2.75;;;;;26.57;60.67;101697.75;5028981;28;50171;-75
2023/07/06 08:23:40;;;;;;;;;4.75;3.00;;;;;27.01;61.86;101694.50;5027687;28;49725;-76
2023/07/06 08:26:08;;;;;;;;;0.25;0.25;;;;;26.78;61.83;101692.56;5025311;28;50055;-75
2023/07/06 08:28:33;;;;;;;;;0.50;0.25;;;;;26.80;60.88;101682.59;5021349;28;50084;-75
2023/07/06 08:31:03;;;;;;;;;2.50;2.50;;;;;26.86;61.15;101681.53;5024600;28;59825;-75
2023/07/06 08:33:35;;;;;;;;;0.75;0.75;;;;;27.18;60.37;101676.94;5015832;28;49730;-74
2023/07/06 08:36:04;;;;;;;;;5.75;1.75;;;;;26.85;60.41;101657.34;5025400;28;50624;-75
2023/07/06 08:38:31;;;;;;;;;2.50;2.50;;;;;26.85;59.38;101669.00;5028084;28;49686;-75
2023/07/06 08:40:57;;;;;;;;;5.25;1.00;;;;;27.01;59.73;101675.63;5028088;28;50202;-75
2023/07/06 08:43:26;;;;;;;;;2.25;1.75;;;;;27.45;58.80;101685.91;5021070;28;50061;-74
2023/07/06 08:45:58;;;;;;;;;2.00;2.00;;;;;27.53;57.21;101682.00;5021742;28;49851;-75
2023/07/06 08:48:26;;;;;;;;;3.50;3.50;;;;;27.21;57.39;101668.72;5027790;28;49946;-75
2023/07/06 08:50:59;;;;;;;;;2.00;2.00;;;;;27.65;56.87;101680.69;5024272;28;49793;-75
2023/07/06 08:53:28;;;;;;;;;3.50;3.50;;;;;27.51;57.37;101673.09;5027727;28;49941;-75
2023/07/06 08:55:57;;;;;;;;;1.00;1.00;;;;;27.49;56.43;101683.03;5019937;28;51715;-75
2023/07/06 08:58:30;;;;;;;;;6.00;5.00;;;;;27.58;57.11;101671.91;5026367;28;49821;-75
2023/07/06 09:01:12;;;;;;;;;2.25;2.25;;;;;27.75;54.94;101681.25;5026610;28;49975;-73
2023/07/06 09:03:48;;;;;;;;;3.25;2.00;;;;;27.84;54.03;101689.91;5026585;28;49786;-75
2023/07/06 09:06:23;;;;;;;;;5.00;4.00;;;;;27.93;54.94;101681.47;5027163;28;51579;-74
2023/07/06 09:08:53;;;;;;;;;4.50;3.00;;;;;27.56;54.65;101684.56;5021782;28;49877;-74
2023/07/06 09:11:21;;;;;;;;;4.00;2.50;;;;;27.41;54.61;101689.63;5025976;28;49894;-74
2023/07/06 09:13:54;;;;;;;;;0.50;0.00;;;;;28.05;55.50;101692.75;5020648;28;50052;-75
2023/07/06 09:16:20;;;;;;;;;7.75;3.25;;;;;27.52;52.56;101691.03;5025507;28;50632;-74
2023/07/06 09:18:52;;;;;;;;;3.00;3.00;;;;;28.09;52.77;101681.78;5028464;28;50133;-74
2023/07/06 09:21:22;;;;;;;;;4.00;4.00;;;;;28.07;52.76;101685.47;5025427;28;50161;-74
2023/07/06 09:23:47;;;;;;;;;2.50;1.50;;;;;27.65;52.64;101681.59;5022905;28;50268;-75
2023/07/06 09:26:21;;;;;;;;;3.00;2.00;;;;;28.38;52.88;101678.00;5027408;28;50112;-75
2023/07/06 09:28:46;;;;;;;;;7.50;4.00;;;;;27.76;51.64;101686.59;5018683;28;50196;-75
2023/07/06 09:31:20;;;;;;;;;2.00;2.00;;;;;28.33;51.70;101680.00;5027845;28;50065;-75
2023/07/06 09:33:52;;;;;;;;;5.50;4.25;;;;;28.20;51.21;101684.97;5027150;28;49914;-74
2023/07/06 09:36:23;;;;;;;;;6.50;6.00;;;;;28.31;51.60;101692.69;5026180;28;50664;-74
2023/07/06 09:38:50;;;;;;;;;1.50;0.00;;;;;27.92;50.22;101684.22;5020144;28;50219;-75
2023/07/06 09:41:20;;;;;;;;;6.25;4.00;;;;;28.48;49.84;101678.53;5015572;28;49844;-74
2023/07/06 09:43:46;;;;;;;;;4.25;4.25;;;;;28.36;50.06;101681.69;5018339;28;49981;-74
2023/07/06 09:46:14;;;;;;;;;4.75;4.75;;;;;28.13;50.26;101680.72;5024243;28;50979;-75
2023/07/06 09:48:42;;;;;;;;;7.50;4.00;;;;;28.31;50.34;101671.06;5027724;28;50096;-75
2023/07/06 09:51:28;;;;;;;;;4.25;4.25;;;;;28.97;49.83;101657.66;5018195;28;49816;-74
2023/07/06 09:54:00;;;;;;;;;2.50;2.50;;;;;28.97;49.34;101671.19;5025436;28;49968;-74
2023/07/06 09:56:28;;;;;;;;;5.25;5.25;;;;;28.52;49.49;101672.94;5026025;28;50372;-75
2023/07/06 09:58:53;;;;;;;;;4.00;2.00;;;;;28.47;49.27;101657.84;5015744;28;49707;-75
2023/07/06 10:01:39;;;;;;;;;4.75;4.00;;;;;29.31;48.25;101679.59;5023534;28;49827;-74
2023/07/06 10:04:29;;;;;;;;;6.25;4.00;;;;;29.35;48.07;101672.25;5019155;28;50204;-74
2023/07/06 10:07:17;;;;;;;;;2.00;2.00;;;;;29.42;47.27;101665.63;5024537;28;50948;-74
2023/07/06 10:09:57;;;;;;;;;1.25;1.00;;;;;29.61;47.40;101666.59;5022190;28;49951;-75
2023/07/06 10:12:31;;;;;;;;;4.25;4.25;;;;;29.45;47.27;101665.50;5025174;28;50132;-74
2023/07/06 10:15:00;;;;;;;;;4.50;3.00;;;;;29.34;47.28;101668.69;5027959;28;49933;-74
2023/07/06 10:17:37;;;;;;;;;4.00;3.00;;;;;29.53;46.50;101640.81;5025885;28;50688;-74
2023/07/06 10:20:20;;;;;;;;;5.50;3.50;;;;;29.71;46.45;101655.38;5005678;28;50166;-74
2023/07/06 10:22:57;;;;;;;;;6.25;4.25;;;;;29.84;46.70;101656.59;5022897;28;50172;-75
2023/07/06 10:25:29;;;;;;;;;4.00;1.00;;;;;29.80;46.85;101655.81;5026646;28;50041;-74
2023/07/06 10:28:07;;;;;;;;;5.00;4.75;;;;;29.95;45.32;101646.16;5018009;28;50858;-72
2023/07/06 10:30:37;;;;;;;;;5.00;4.00;;;;;30.08;45.44;101650.06;5025958;28;50086;-72
2023/07/06 10:33:13;;;;;;;;;3.00;3.00;;;;;30.32;44.80;101650.75;5027346;28;49729;-74
2023/07/06 10:35:45;;;;;;;;;5.50;3.50;;;;;30.46;43.54;101648.25;5027370;28;50003;-73
2023/07/06 10:38:11;;;;;;;;;5.00;4.00;;;;;30.09;42.65;101653.66;5017878;28;50108;-75
2023/07/06 10:40:37;;;;;;;;;6.00;4.25;;;;;30.16;42.15;101650.59;5030603;28;49942;-75
2023/07/06 10:43:14;;;;;;;;;4.00;4.00;;;;;31.08;41.81;101642.50;5024516;28;49903;-75
2023/07/06 10:45:56;;;;;;;;;5.00;4.00;;;;;30.76;41.13;101647.72;5030058;28;49778;-75
2023/07/06 10:48:22;;;;;;;;;2.00;2.00;;;;;30.32;41.84;101650.75;5029617;28;49960;-75
2023/07/06 10:50:56;;;;;;;;;4.50;3.50;;;;;31.10;39.82;101644.22;5029575;28;49884;-72
2023/07/06 10:53:36;;;;;;;;;2.75;1.50;;;;;30.89;40.24;101640.75;5017395;28;49870;-72
2023/07/06 10:56:01;;;;;;;;;4.75;3.25;;;;;30.17;40.59;101638.81;5030698;28;49655;-73
2023/07/06 10:58:32;;;;;;;;;5.25;4.00;;;;;30.72;41.26;101638.88;5030016;28;55128;-74
2023/07/06 11:01:03;;;;;;;;;2.00;2.00;;;;;30.58;41.29;101622.38;5030633;28;49847;-74
2023/07/06 11:03:34;;;;;;;;;4.75;4.00;;;;;30.54;40.94;101634.34;5002488;28;49889;-73
2023/07/06 11:06:07;;;;;;;;;6.75;4.00;;;;;30.41;40.38;101649.44;5029465;28;50132;-70
2023/07/06 11:09:08;;;;;;;;;4.25;2.00;;;;;31.31;39.45;101639.53;5017537;28;49821;-75
2023/07/06 11:11:54;;;;;;;;;2.50;2.50;;;;;31.20;40.30;101637.38;5029341;28;49717;-71
2023/07/06 11:14:35;;;;;;;;;6.75;4.50;;;;;30.91;39.71;101614.44;5023382;28;49738;-73
2023/07/06 11:17:10;;;;;;;;;2.00;2.00;;;;;30.75;39.08;101632.44;5018667;28;50100;-73
2023/07/06 11:19:48;;;;;;;;;4.25;2.50;;;;;30.86;39.71;101627.34;5028261;28;49745;-73
2023/07/06 11:22:18;;;;;;;;;2.00;2.00;;;;;30.85;40.15;101631.00;5025756;28;49869;-73
2023/07/06 11:24:48;;;;;;;;;2.00;2.00;;;;;30.78;39.62;101630.44;5029623;28;49876;-80
2023/07/06 11:27:24;;;;;;;;;5.25;5.25;;;;;30.87;40.00;101629.09;5029196;28;50046;-71
2023/07/06 11:29:54;;;;;;;;;4.25;4.25;;;;;30.59;40.57;101623.25;5028893;28;50561;-71
2023/07/06 11:32:48;;;;;;;;;2.25;1.75;;;;;30.86;39.61;101626.47;5016875;28;50225;-71
2023/07/06 11:35:41;;;;;;;;;6.00;6.00;;;;;30.68;38.73;101629.13;5026543;28;49746;-74
2023/07/06 11:38:38;;;;;;;;;4.25;2.00;;;;;30.71;39.13;101625.41;5029793;28;49853;-72
2023/07/06 11:41:13;;;;;;;;;5.50;3.25;;;;;29.97;38.44;101622.59;5028647;28;49912;-71
2023/07/06 11:43:59;;;;;;;;;1.75;1.50;;;;;30.64;38.74;101615.78;5029956;28;49861;-72
2023/07/06 11:47:07;;;;;;;;;4.75;2.00;;;;;30.67;36.99;101612.94;5023108;28;50080;-72
2023/07/06 11:49:49;;;;;;;;;2.50;2.50;;;;;30.66;37.36;101622.03;4965262;28;50395;-72
2023/07/06 11:52:24;;;;;;;;;3.50;2.00;;;;;30.63;37.58;101614.91;4966915;28;50767;-72
2023/07/06 11:55:18;;;;;;;;;4.25;2.00;;;;;30.51;36.63;101614.66;4968250;28;49799;-73
2023/07/06 11:58:04;;;;;;;;;1.50;1.50;;;;;30.78;37.46;101618.72;4965862;28;50494;-74
2023/07/06 12:02:57;;;;;;;;;2.25;2.25;;;;;30.28;36.12;101599.50;4967554;28;50078;-73
2023/07/06 12:05:37;;;;;;;;;4.25;2.75;;;;;31.11;35.24;101597.16;4966194;28;50894;-72
2023/07/06 12:08:16;;;;;;;;;0.00;0.00;;;;;31.21;34.87;101600.28;4966431;28;50286;-73
2023/07/06 12:10:48;;;;;;;;;2.00;1.00;;;;;31.01;35.13;101593.16;4968273;28;50379;-73
2023/07/06 12:13:22;;;;;;;;;3.50;3.50;;;;;31.29;33.77;101585.38;4965735;28;50184;-72
2023/07/06 12:15:49;;;;;;;;;1.00;0.00;;;;;30.92;34.17;101580.94;4966149;28;49896;-73
2023/07/06 12:18:15;;;;;;;;;1.00;1.00;;;;;31.16;35.01;101592.34;4964212;28;49765;-74
2023/07/06 12:20:42;;;;;;;;;1.00;1.00;;;;;31.21;33.74;101594.88;4969330;28;50106;-71
2023/07/06 12:23:12;;;;;;;;;2.25;1.00;;;;;31.85;32.00;101580.59;4969500;28;50494;-71
2023/07/06 12:25:40;;;;;;;;;4.25;1.00;;;;;32.03;33.12;101584.97;4978102;28;50143;-72
2023/07/06 12:28:11;;;;;;;;;3.25;2.00;;;;;32.29;33.70;101579.91;5019414;28;49916;-76
2023/07/06 12:30:39;;;;;;;;;0.00;0.00;;;;;31.86;31.49;101576.91;5028288;28;49789;-73
2023/07/06 12:33:08;;;;;;;;;1.00;1.00;;;;;32.30;31.49;101573.53;5015043;28;50505;-73
2023/07/06 12:35:34;;;;;;;;;1.75;1.00;;;;;32.20;31.92;101575.88;5016940;28;49870;-73
2023/07/06 12:38:03;;;;;;;;;1.25;1.25;;;;;32.63;31.31;101577.03;5017195;28;50045;-74
2023/07/06 12:40:32;;;;;;;;;0.50;0.00;;;;;32.54;30.21;101572.13;5023915;28;50071;-73
2023/07/06 12:42:57;;;;;;;;;1.00;1.00;;;;;32.10;30.98;101572.81;5021871;28;51670;-73
2023/07/06 12:45:23;;;;;;;;;3.25;1.75;;;;;32.22;30.08;101563.06;5020019;28;50072;-73
2023/07/06 12:47:57;;;;;;;;;0.00;0.00;;;;;32.89;29.47;101564.63;5024273;28;49914;-73
2023/07/06 12:50:28;;;;;;;;;0.00;0.00;;;;;32.28;29.04;101554.59;5015801;28;50069;-73
2023/07/06 12:53:13;;;;;;;;;1.00;1.00;;;;;32.99;28.69;101554.06;5021209;28;49872;-73
2023/07/06 12:55:44;;;;;;;;;1.50;0.00;;;;;32.79;27.72;101544.34;5018657;28;49811;-72
2023/07/06 12:58:29;;;;;;;;;1.00;1.00;;;;;33.23;28.98;101557.16;5012859;28;49830;-73
2023/07/06 13:01:10;;;;;;;;;2.25;1.25;;;;;33.33;29.43;101555.59;5024552;28;50317;-73
2023/07/06 13:03:56;;;;;;;;;1.00;1.00;;;;;33.38;29.08;101549.91;5020167;28;50420;-73
2023/07/06 13:06:26;;;;;;;;;2.50;1.50;;;;;32.82;29.31;101546.03;5016347;28;49845;-72
2023/07/06 13:08:56;;;;;;;;;2.00;1.00;;;;;33.30;28.81;101543.06;5015931;28;50019;-72
2023/07/06 13:11:22;;;;;;;;;2.00;2.00;;;;;32.76;28.30;101544.56;5015074;28;49991;-72
2023/07/06 13:13:50;;;;;;;;;1.00;1.00;;;;;32.92;27.68;101530.97;5010950;28;49925;-72
2023/07/06 13:16:17;;;;;;;;;1.25;0.50;;;;;32.96;28.70;101537.94;5022514;28;49852;-72
2023/07/06 13:18:46;;;;;;;;;2.00;2.00;;;;;33.39;28.42;101535.31;5025416;28;49739;-73
2023/07/06 13:21:30;;;;;;;;;1.00;1.00;;;;;33.65;28.24;101531.81;5021527;28;49697;-73
2023/07/06 13:23:57;;;;;;;;;1.00;1.00;;;;;33.08;28.02;101520.00;5019066;28;51335;-72
2023/07/06 13:26:26;;;;;;;;;2.00;2.00;;;;;32.93;28.15;101519.97;5023788;28;50018;-73
2023/07/06 13:28:53;;;;;;;;;1.00;0.75;;;;;33.27;27.78;101521.47;5020716;28;49778;-73
2023/07/06 13:31:19;;;;;;;;;1.00;1.00;;;;;33.11;28.11;101514.38;5009899;28;49786;-73
2023/07/06 13:33:45;;;;;;;;;2.00;1.00;;;;;33.33;28.04;101516.63;5027603;28;50499;-73
2023/07/06 13:36:14;;;;;;;;;0.75;0.00;;;;;33.47;28.23;101516.66;5024032;28;49788;-73
2023/07/06 13:38:39;;;;;;;;;1.00;1.00;;;;;32.95;28.57;101511.72;5026848;28;49794;-73
2023/07/06 13:41:06;;;;;;;;;2.00;0.25;;;;;33.00;26.85;101518.59;5027726;28;49960;-72
2023/07/06 13:43:31;;;;;;;;;0.00;0.00;;;;;32.75;26.70;101508.34;5026796;28;51684;-72
2023/07/06 13:45:58;;;;;;;;;2.00;1.50;;;;;32.86;28.11;101491.41;5020629;28;56842;-72
2023/07/06 13:48:23;;;;;;;;;1.00;1.00;;;;;33.00;26.81;101504.13;5028010;28;50081;-72
2023/07/06 13:50:49;;;;;;;;;0.00;0.00;;;;;32.99;27.77;101499.66;5014776;28;49809;-72
2023/07/06 13:53:15;;;;;;;;;1.75;1.00;;;;;32.95;27.26;101499.00;5009869;28;68892;-72
2023/07/06 13:55:54;;;;;;;;;1.00;1.00;;;;;33.66;27.16;101492.72;5027144;28;50187;-73
2023/07/06 13:58:26;;;;;;;;;2.00;2.00;;;;;33.67;27.20;101485.44;5025952;28;49816;-73
2023/07/06 14:00:52;;;;;;;;;1.50;1.00;;;;;33.32;27.31;101488.56;5021769;28;49787;-73
2023/07/06 14:03:20;;;;;;;;;2.75;2.75;;;;;33.45;27.23;101488.66;5022601;28;49915;-73
2023/07/06 14:05:46;;;;;;;;;6.00;2.00;;;;;33.13;27.15;101496.13;5026817;28;49861;-72
2023/07/06 14:08:12;;;;;;;;;0.00;0.00;;;;;33.24;26.96;101478.16;5027034;28;49901;-72
2023/07/06 14:10:38;;;;;;;;;2.25;1.00;;;;;33.24;26.96;101471.81;5024687;28;50084;-72
2023/07/06 14:13:06;;;;;;;;;0.50;0.50;;;;;33.50;27.47;101481.09;5026773;28;49827;-71
2023/07/06 14:15:31;;;;;;;;;0.00;0.00;;;;;33.54;27.77;101477.19;5027650;28;49736;-72
2023/07/06 14:17:57;;;;;;;;;1.00;1.00;;;;;33.40;27.12;101477.22;5024186;28;49814;-71
2023/07/06 14:20:23;;;;;;;;;0.50;0.25;;;;;33.50;26.89;101471.09;5025698;28;50063;-71
2023/07/06 14:22:51;;;;;;;;;2.00;0.00;;;;;33.80;25.95;101481.84;5000800;28;50780;-71
2023/07/06 14:25:24;;;;;;;;;1.00;1.00;;;;;34.13;27.27;101478.75;5030493;28;49837;-72
2023/07/06 14:27:50;;;;;;;;;3.00;1.00;;;;;33.68;26.22;101481.72;5028229;28;50320;-71
2023/07/06 14:30:19;;;;;;;;;2.50;2.50;;;;;33.55;25.83;101478.94;5028349;28;49806;-70
2023/07/06 14:32:45;;;;;;;;;3.00;2.00;;;;;33.62;25.81;101466.69;5030328;28;50823;-71
2023/07/06 14:35:13;;;;;;;;;1.00;1.00;;;;;33.81;26.07;101471.81;5030125;28;49770;-71
2023/07/06 14:37:39;;;;;;;;;2.00;2.00;;;;;33.65;26.13;101468.34;5025905;28;50042;-71
2023/07/06 14:40:07;;;;;;;;;1.50;1.00;;;;;33.77;26.81;101470.25;5023687;28;50058;-71
2023/07/06 14:42:33;;;;;;;;;0.25;0.00;;;;;33.71;26.42;101476.13;5029499;28;49941;-70
2023/07/06 14:44:59;;;;;;;;;1.50;1.50;;;;;33.76;25.32;101479.41;5028063;28;50010;-71
2023/07/06 14:47:24;;;;;;;;;3.00;3.00;;;;;33.69;26.17;101467.19;5028609;28;49836;-71
2023/07/06 14:49:50;;;;;;;;;1.25;0.00;;;;;33.58;25.34;101470.56;5029697;28;50073;-71
2023/07/06 14:52:16;;;;;;;;;3.50;1.00;;;;;33.62;26.29;101452.22;5029120;28;50376;-71
2023/07/06 14:54:43;;;;;;;;;2.75;2.00;;;;;33.80;27.13;101464.63;5024429;28;49829;-71
2023/07/06 14:57:09;;;;;;;;;4.00;2.50;;;;;33.90;26.06;101460.34;5023131;28;49866;-72
2023/07/06 14:59:34;;;;;;;;;1.50;1.50;;;;;33.95;26.02;101466.34;5029473;28;50272;-72
2023/07/06 15:02:00;;;;;;;;;0.00;0.00;;;;;34.13;25.71;101464.25;5030662;28;49701;-72
2023/07/06 15:04:25;;;;;;;;;1.50;1.50;;;;;34.15;25.57;101457.72;5023583;28;49893;-71
2023/07/06 15:06:50;;;;;;;;;1.00;1.00;;;;;34.22;25.70;101449.16;5030736;28;49812;-71
2023/07/06 15:09:16;;;;;;;;;2.50;2.00;;;;;34.27;25.42;101444.28;5030014;28;50067;-72
2023/07/06 15:11:41;;;;;;;;;2.75;1.50;;;;;34.15;25.84;101425.03;5029416;28;56342;-72
2023/07/06 15:14:06;;;;;;;;;7.25;2.00;;;;;34.24;25.27;101436.28;5029219;28;59562;-72
2023/07/06 15:16:32;;;;;;;;;1.00;1.00;;;;;34.28;25.50;101437.84;5029482;28;60387;-71
2023/07/06 15:18:57;;;;;;;;;5.25;2.25;;;;;34.44;26.13;101435.81;5016863;28;50231;-71
2023/07/06 15:21:22;;;;;;;;;0.25;0.25;;;;;34.49;24.78;101432.78;5024161;28;49892;-72
2023/07/06 15:23:48;;;;;;;;;2.00;2.00;;;;;34.51;24.32;101436.28;5031065;28;49788;-72
2023/07/06 15:26:14;;;;;;;;;1.25;1.00;;;;;34.83;25.41;101429.44;5011395;28;50240;-72
2023/07/06 15:28:40;;;;;;;;;3.75;1.00;;;;;34.95;25.35;101434.09;5030764;28;49974;-73
2023/07/06 15:31:05;;;;;;;;;1.00;1.00;;;;;35.57;24.58;101425.06;5020749;28;50086;-73
2023/07/06 15:33:30;;;;;;;;;2.50;2.00;;;;;37.29;22.94;101445.56;5021241;28;50099;-72
2023/07/06 15:35:56;;;;;;;;;0.50;0.50;;;;;40.44;20.32;101449.97;5027072;28;49761;-72
2023/07/06 15:38:22;;;;;;;;;3.00;2.00;;;;;42.95;17.59;101445.03;5016315;28;50395;-72
2023/07/06 15:40:49;;;;;;;;;1.00;1.00;;;;;44.99;16.79;101452.00;5029413;28;49893;-72
2023/07/06 15:43:15;;;;;;;;;5.75;5.75;;;;;46.30;15.65;101449.50;5029215;28;50046;-72
2023/07/06 15:45:42;;;;;;;;;3.00;1.25;;;;;47.44;14.05;101440.06;5030116;28;50161;-72
2023/07/06 15:48:07;;;;;;;;;4.00;4.00;;;;;48.41;12.93;101443.38;5029238;28;50046;-72
2023/07/06 15:50:33;;;;;;;;;1.00;0.00;;;;;49.66;12.82;101433.31;5029716;28;51461;-72
2023/07/06 15:53:02;;;;;;;;;0.00;0.00;;;;;51.33;12.08;101435.97;4998865;28;49795;-73
2023/07/06 15:55:27;;;;;;;;;3.75;3.75;;;;;51.48;10.78;101422.63;5012034;28;49883;-72
2023/07/06 15:57:53;;;;;;;;;2.00;2.00;;;;;52.53;11.28;101411.84;5012522;28;64593;-73
2023/07/06 16:00:18;;;;;;;;;2.75;2.75;;;;;53.39;10.39;101420.22;5011859;28;73976;-72
2023/07/06 16:02:44;;;;;;;;;1.50;1.00;;;;;54.37;9.43;101407.81;5015375;28;49772;-72
2023/07/06 16:05:09;;;;;;;;;1.00;1.00;;;;;54.85;8.94;101407.56;5022297;28;58162;-73
2023/07/06 16:07:35;;;;;;;;;5.00;4.00;;;;;55.18;9.25;101391.97;5020317;28;49673;-73
2023/07/06 16:10:01;;;;;;;;;5.25;4.00;;;;;55.91;8.62;101388.41;5020818;28;49716;-74
2023/07/06 16:12:26;;;;;;;;;3.25;2.75;;;;;56.29;7.85;101386.88;5025319;28;50239;-73
2023/07/06 16:14:51;;;;;;;;;3.00;3.00;;;;;56.69;7.83;101386.66;5027443;28;50170;-73
2023/07/06 16:17:17;;;;;;;;;1.75;1.75;;;;;56.75;7.68;101387.56;5012215;28;63128;-71
2023/07/06 16:19:42;;;;;;;;;2.50;2.50;;;;;56.74;7.31;101380.22;5010931;28;67326;-72
2023/07/06 16:22:07;;;;;;;;;4.00;4.00;;;;;56.85;7.76;101382.06;5013786;28;49951;-75
2023/07/06 16:24:32;;;;;;;;;1.00;1.00;;;;;56.96;7.10;101375.50;5012908;28;49865;-73
2023/07/06 16:26:58;;;;;;;;;2.00;2.00;;;;;56.90;7.27;101382.16;4995053;28;50042;-74
2023/07/06 16:29:23;;;;;;;;;3.00;1.00;;;;;57.16;6.86;101383.34;5004681;28;49800;-75
2023/07/06 16:31:49;;;;;;;;;2.50;2.50;;;;;57.24;7.24;101367.94;5017795;28;49790;-74
2023/07/06 16:34:14;;;;;;;;;6.50;3.75;;;;;56.38;7.56;101361.91;5015093;28;50153;-76
2023/07/06 16:36:39;;;;;;;;;1.25;1.25;;;;;52.86;8.65;101359.09;5022673;28;50106;-76
2023/07/06 16:39:05;;;;;;;;;4.25;3.00;;;;;50.24;10.31;101353.56;5020662;28;62097;-74
2023/07/06 16:41:31;;;;;;;;;3.75;3.75;;;;;48.10;11.36;101356.53;5022538;28;49762;-75
2023/07/06 16:43:57;;;;;;;;;3.50;3.50;;;;;46.10;12.22;101359.47;5015528;28;50029;-72
2023/07/06 16:46:22;;;;;;;;;1.00;0.00;;;;;44.75;13.04;101349.53;5022238;28;50003;-84
2023/07/06 16:48:47;;;;;;;;;1.25;1.25;;;;;43.53;13.53;101354.97;5017102;28;50473;-73
2023/07/06 16:51:13;;;;;;;;;3.00;3.00;;;;;42.55;14.70;101360.84;5016516;28;50220;-73
2023/07/06 16:53:41;;;;;;;;;3.75;3.50;;;;;42.05;15.08;101351.41;5029168;28;50069;-76
2023/07/06 16:56:06;;;;;;;;;2.75;2.50;;;;;40.72;16.12;101350.97;4998836;28;49999;-75
2023/07/06 16:58:31;;;;;;;;;2.75;2.75;;;;;40.17;16.41;101348.91;5021783;28;50065;-76
2023/07/06 17:01:00;;;;;;;;;3.75;2.75;;;;;40.14;16.83;101351.91;5017853;28;49847;-75
2023/07/06 17:03:26;;;;;;;;;1.50;1.50;;;;;39.27;16.67;101345.38;5017985;28;49795;-75
2023/07/06 17:05:51;;;;;;;;;10.75;10.75;;;;;38.72;17.11;101351.22;5028730;28;49669;-74
2023/07/06 17:08:16;;;;;;;;;2.50;2.50;;;;;38.22;18.01;101351.00;5028625;28;49785;-74
2023/07/06 17:10:41;;;;;;;;;8.00;8.00;;;;;37.90;18.28;101347.38;5009952;28;54613;-77
2023/07/06 17:13:07;;;;;;;;;5.50;5.50;;;;;37.49;18.37;101347.09;5022557;28;49890;-73
2023/07/06 17:15:32;;;;;;;;;4.00;4.00;;;;;37.22;18.76;101346.63;5021537;28;49651;-73
2023/07/06 17:17:58;;;;;;;;;3.00;3.00;;;;;36.84;19.27;101347.00;5017144;28;59249;-75
2023/07/06 17:20:23;;;;;;;;;2.00;2.00;;;;;36.58;19.48;101340.88;5016490;28;49687;-73
2023/07/06 17:22:49;;;;;;;;;3.00;1.00;;;;;36.26;19.89;101357.03;5017259;28;49763;-74
2023/07/06 17:25:14;;;;;;;;;8.50;7.25;;;;;36.06;19.67;101351.25;5016188;28;50143;-74
2023/07/06 17:27:40;;;;;;;;;2.50;2.00;;;;;36.10;20.19;101347.31;5013508;28;50806;-72
2023/07/06 17:30:06;;;;;;;;;2.25;2.00;;;;;35.78;20.57;101347.00;5021306;28;49801;-74
2023/07/06 17:32:31;;;;;;;;;2.00;2.00;;;;;35.28;20.96;101348.03;5017103;28;50070;-79
2023/07/06 17:34:56;;;;;;;;;8.00;6.50;;;;;35.22;20.97;101353.91;5015288;28;50225;-76
2023/07/06 17:37:22;;;;;;;;;5.75;5.75;;;;;35.05;20.80;101347.00;5022054;28;50826;-73
2023/07/06 17:39:49;;;;;;;;;6.00;6.00;;;;;34.94;21.35;101349.63;5025845;28;55199;-74
2023/07/06 17:42:14;;;;;;;;;9.00;7.75;;;;;34.54;21.53;101336.06;5019189;28;49926;-75
2023/07/06 17:44:40;;;;;;;;;7.25;6.25;;;;;34.46;21.49;101348.50;5015112;28;50127;-74
2023/07/06 17:47:05;;;;;;;;;3.50;2.50;;;;;34.45;21.17;101347.59;5025424;28;50143;-74
2023/07/06 17:49:30;;;;;;;;;3.50;3.50;;;;;34.24;21.44;101336.31;5015931;28;49882;-73
2023/07/06 17:51:56;;;;;;;;;3.00;3.00;;;;;34.26;22.23;101350.75;5023310;28;49790;-74
2023/07/06 17:54:21;;;;;;;;;6.00;4.75;;;;;34.12;22.55;101346.22;5024139;28;51473;-73
2023/07/06 17:56:46;;;;;;;;;1.00;1.00;;;;;33.99;21.97;101348.06;5012288;28;50440;-74
2023/07/06 17:59:12;;;;;;;;;3.50;3.00;;;;;34.18;21.74;101334.03;5018134;28;49781;-75
2023/07/06 18:01:37;;;;;;;;;3.50;3.50;;;;;33.93;22.27;101334.84;5021738;28;49916;-74
2023/07/06 18:04:03;;;;;;;;;2.00;2.00;;;;;33.73;22.25;101348.91;5012635;28;54679;-74
2023/07/06 18:06:28;;;;;;;;;2.50;2.50;;;;;33.56;23.57;101340.00;5019346;28;50526;-73
2023/07/06 18:08:53;;;;;;;;;4.25;4.00;;;;;33.91;22.61;101342.25;5020865;28;49775;-73